Terminal Aerodrome Forecast
Issued by NWS

Home | Current Version | Previous Version | Text Only | Print | Product List | Glossary On
Versions: 1 2 3 4 5 6 7 8 9 10 11 12 13 14
000
FTUS44 KCRP 301730
TAFALI
TAF
KALI 301730Z 3018/3118 18011KT P6SM SCT040
     FM302000 14014KT P6SM FEW050 SCT250
     FM310100 15006KT P6SM SCT250
     FM311000 14003KT 5SM BR FEW018 SCT250
     FM311300 17010KT P6SM SCT025 SCT035=

USA.gov is the U.S. government's official web portal to all federal, state and local government web resources and services.